sensor_id;sensor_type;location;lat;lon;timestamp;P1;durP1;ratioP1;P2;durP2;ratioP2
82711;SDS011;72433;41.992;21.438;2024-03-22T00:00:34;38.08;;;20.17;;
82711;SDS011;72433;41.992;21.438;2024-03-22T00:03:00;40.78;;;20.55;;
82711;SDS011;72433;41.992;21.438;2024-03-22T00:05:26;35.85;;;19.45;;
82711;SDS011;72433;41.992;21.438;2024-03-22T00:07:52;42.67;;;21.05;;
82711;SDS011;72433;41.992;21.438;2024-03-22T00:10:18;34.28;;;19.90;;
82711;SDS011;72433;41.992;21.438;2024-03-22T00:12:44;39.63;;;19.75;;
82711;SDS011;72433;41.992;21.438;2024-03-22T00:15:10;33.63;;;17.98;;
82711;SDS011;72433;41.992;21.438;2024-03-22T00:17:36;43.47;;;19.98;;
82711;SDS011;72433;41.992;21.438;2024-03-22T00:20:02;40.63;;;19.75;;
82711;SDS011;72433;41.992;21.438;2024-03-22T00:22:29;39.30;;;19.10;;
82711;SDS011;72433;41.992;21.438;2024-03-22T00:24:55;37.53;;;19.20;;
82711;SDS011;72433;41.992;21.438;2024-03-22T00:27:21;34.97;;;19.38;;
82711;SDS011;72433;41.992;21.438;2024-03-22T00:29:47;38.50;;;19.77;;
82711;SDS011;72433;41.992;21.438;2024-03-22T00:32:13;41.67;;;20.55;;
82711;SDS011;72433;41.992;21.438;2024-03-22T00:34:39;33.95;;;18.75;;
82711;SDS011;72433;41.992;21.438;2024-03-22T00:37:08;36.13;;;19.60;;
82711;SDS011;72433;41.992;21.438;2024-03-22T00:39:34;40.97;;;21.88;;
82711;SDS011;72433;41.992;21.438;2024-03-22T00:42:00;35.17;;;19.55;;
82711;SDS011;72433;41.992;21.438;2024-03-22T00:44:27;37.00;;;18.63;;
82711;SDS011;72433;41.992;21.438;2024-03-22T00:46:53;37.08;;;19.48;;
82711;SDS011;72433;41.992;21.438;2024-03-22T00:49:19;40.97;;;20.40;;
82711;SDS011;72433;41.992;21.438;2024-03-22T00:51:45;35.65;;;20.05;;
82711;SDS011;72433;41.992;21.438;2024-03-22T00:54:12;33.33;;;18.60;;
82711;SDS011;72433;41.992;21.438;2024-03-22T00:56:38;35.80;;;19.00;;
82711;SDS011;72433;41.992;21.438;2024-03-22T00:59:04;37.90;;;19.15;;
82711;SDS011;72433;41.992;21.438;2024-03-22T01:01:31;32.67;;;19.35;;
82711;SDS011;72433;41.992;21.438;2024-03-22T01:03:57;38.08;;;18.55;;
82711;SDS011;72433;41.992;21.438;2024-03-22T01:06:23;36.25;;;18.65;;
82711;SDS011;72433;41.992;21.438;2024-03-22T01:08:52;29.42;;;16.90;;
82711;SDS011;72433;41.992;21.438;2024-03-22T01:11:18;32.72;;;16.48;;
82711;SDS011;72433;41.992;21.438;2024-03-22T01:13:44;27.75;;;15.82;;
82711;SDS011;72433;41.992;21.438;2024-03-22T01:16:10;31.30;;;16.60;;
82711;SDS011;72433;41.992;21.438;2024-03-22T01:18:36;28.77;;;16.35;;
82711;SDS011;72433;41.992;21.438;2024-03-22T01:21:02;35.08;;;16.70;;
82711;SDS011;72433;41.992;21.438;2024-03-22T01:23:30;29.00;;;16.58;;
82711;SDS011;72433;41.992;21.438;2024-03-22T01:25:56;31.42;;;17.58;;
82711;SDS011;72433;41.992;21.438;2024-03-22T01:28:22;32.83;;;18.85;;
82711;SDS011;72433;41.992;21.438;2024-03-22T01:30:48;40.00;;;20.15;;
82711;SDS011;72433;41.992;21.438;2024-03-22T01:33:14;33.75;;;18.52;;
82711;SDS011;72433;41.992;21.438;2024-03-22T01:35:40;36.03;;;18.23;;
82711;SDS011;72433;41.992;21.438;2024-03-22T01:38:06;29.33;;;18.35;;
82711;SDS011;72433;41.992;21.438;2024-03-22T01:40:32;30.83;;;17.58;;
82711;SDS011;72433;41.992;21.438;2024-03-22T01:42:59;36.00;;;18.60;;
82711;SDS011;72433;41.992;21.438;2024-03-22T01:45:27;27.38;;;16.48;;
82711;SDS011;72433;41.992;21.438;2024-03-22T01:47:57;30.60;;;16.88;;
82711;SDS011;72433;41.992;21.438;2024-03-22T01:50:24;30.88;;;17.48;;
82711;SDS011;72433;41.992;21.438;2024-03-22T01:52:50;27.48;;;16.67;;
82711;SDS011;72433;41.992;21.438;2024-03-22T01:55:17;30.60;;;18.50;;
82711;SDS011;72433;41.992;21.438;2024-03-22T01:57:43;29.70;;;17.45;;
82711;SDS011;72433;41.992;21.438;2024-03-22T02:00:10;27.02;;;16.27;;
82711;SDS011;72433;41.992;21.438;2024-03-22T02:02:36;28.27;;;16.52;;
82711;SDS011;72433;41.992;21.438;2024-03-22T02:05:14;27.38;;;14.52;;
82711;SDS011;72433;41.992;21.438;2024-03-22T02:07:41;27.42;;;14.68;;
82711;SDS011;72433;41.992;21.438;2024-03-22T02:10:08;20.88;;;12.57;;
82711;SDS011;72433;41.992;21.438;2024-03-22T02:12:36;22.75;;;13.02;;
82711;SDS011;72433;41.992;21.438;2024-03-22T02:15:02;19.02;;;9.90;;
82711;SDS011;72433;41.992;21.438;2024-03-22T02:17:28;15.35;;;9.02;;
82711;SDS011;72433;41.992;21.438;2024-03-22T02:19:55;14.70;;;8.23;;
82711;SDS011;72433;41.992;21.438;2024-03-22T02:22:21;13.43;;;7.68;;
82711;SDS011;72433;41.992;21.438;2024-03-22T02:24:47;11.43;;;7.10;;
82711;SDS011;72433;41.992;21.438;2024-03-22T02:27:13;14.00;;;6.35;;
82711;SDS011;72433;41.992;21.438;2024-03-22T02:29:39;9.85;;;6.15;;
82711;SDS011;72433;41.992;21.438;2024-03-22T02:32:05;11.50;;;6.75;;
82711;SDS011;72433;41.992;21.438;2024-03-22T02:34:31;11.50;;;6.13;;
82711;SDS011;72433;41.992;21.438;2024-03-22T02:36:57;12.68;;;6.75;;
82711;SDS011;72433;41.992;21.438;2024-03-22T02:39:23;11.18;;;5.90;;
82711;SDS011;72433;41.992;21.438;2024-03-22T02:41:50;14.32;;;5.10;;
82711;SDS011;72433;41.992;21.438;2024-03-22T02:44:16;8.98;;;5.45;;
82711;SDS011;72433;41.992;21.438;2024-03-22T02:46:42;8.00;;;5.10;;
82711;SDS011;72433;41.992;21.438;2024-03-22T02:49:08;8.60;;;5.30;;
82711;SDS011;72433;41.992;21.438;2024-03-22T02:51:35;12.65;;;5.90;;
82711;SDS011;72433;41.992;21.438;2024-03-22T02:54:01;10.30;;;5.38;;
82711;SDS011;72433;41.992;21.438;2024-03-22T02:56:27;11.43;;;5.78;;
82711;SDS011;72433;41.992;21.438;2024-03-22T02:58:53;11.48;;;5.43;;
82711;SDS011;72433;41.992;21.438;2024-03-22T03:01:19;12.00;;;6.20;;
82711;SDS011;72433;41.992;21.438;2024-03-22T03:03:46;10.95;;;5.20;;
82711;SDS011;72433;41.992;21.438;2024-03-22T03:06:12;7.20;;;4.80;;
82711;SDS011;72433;41.992;21.438;2024-03-22T03:08:38;9.43;;;5.85;;
82711;SDS011;72433;41.992;21.438;2024-03-22T03:11:04;8.30;;;5.20;;
82711;SDS011;72433;41.992;21.438;2024-03-22T03:13:30;7.90;;;5.32;;
82711;SDS011;72433;41.992;21.438;2024-03-22T03:15:57;8.70;;;5.80;;
82711;SDS011;72433;41.992;21.438;2024-03-22T03:18:23;12.70;;;6.10;;
82711;SDS011;72433;41.992;21.438;2024-03-22T03:20:49;8.73;;;5.32;;
82711;SDS011;72433;41.992;21.438;2024-03-22T03:23:15;14.05;;;5.68;;
82711;SDS011;72433;41.992;21.438;2024-03-22T03:25:41;7.63;;;4.60;;
82711;SDS011;72433;41.992;21.438;2024-03-22T03:28:10;8.15;;;5.13;;
82711;SDS011;72433;41.992;21.438;2024-03-22T03:30:37;9.35;;;5.50;;
82711;SDS011;72433;41.992;21.438;2024-03-22T03:33:04;9.05;;;5.07;;
82711;SDS011;72433;41.992;21.438;2024-03-22T03:35:30;10.10;;;5.68;;
82711;SDS011;72433;41.992;21.438;2024-03-22T03:37:56;13.70;;;6.28;;
82711;SDS011;72433;41.992;21.438;2024-03-22T03:40:22;11.45;;;5.63;;
82711;SDS011;72433;41.992;21.438;2024-03-22T03:42:52;10.77;;;5.20;;
82711;SDS011;72433;41.992;21.438;2024-03-22T03:45:18;9.65;;;5.28;;
82711;SDS011;72433;41.992;21.438;2024-03-22T03:47:45;9.70;;;5.38;;
82711;SDS011;72433;41.992;21.438;2024-03-22T03:50:11;12.35;;;5.60;;
82711;SDS011;72433;41.992;21.438;2024-03-22T03:52:37;12.25;;;5.22;;
82711;SDS011;72433;41.992;21.438;2024-03-22T03:55:04;10.85;;;5.60;;
82711;SDS011;72433;41.992;21.438;2024-03-22T03:57:30;10.25;;;5.47;;
82711;SDS011;72433;41.992;21.438;2024-03-22T03:59:56;12.23;;;5.43;;
82711;SDS011;72433;41.992;21.438;2024-03-22T04:02:22;10.75;;;4.60;;
82711;SDS011;72433;41.992;21.438;2024-03-22T04:04:51;16.95;;;10.00;;
82711;SDS011;72433;41.992;21.438;2024-03-22T04:07:17;20.48;;;11.43;;
82711;SDS011;72433;41.992;21.438;2024-03-22T04:09:43;21.85;;;11.05;;
82711;SDS011;72433;41.992;21.438;2024-03-22T04:12:10;17.42;;;11.23;;
82711;SDS011;72433;41.992;21.438;2024-03-22T04:14:36;19.02;;;10.80;;
82711;SDS011;72433;41.992;21.438;2024-03-22T04:17:02;20.58;;;10.52;;
82711;SDS011;72433;41.992;21.438;2024-03-22T04:19:28;18.17;;;10.40;;
82711;SDS011;72433;41.992;21.438;2024-03-22T04:21:54;20.35;;;10.55;;
82711;SDS011;72433;41.992;21.438;2024-03-22T06:04:09;25.80;;;12.18;;
82711;SDS011;72433;41.992;21.438;2024-03-22T06:06:35;18.65;;;11.57;;
82711;SDS011;72433;41.992;21.438;2024-03-22T06:09:04;17.35;;;10.70;;
82711;SDS011;72433;41.992;21.438;2024-03-22T06:11:43;20.55;;;12.13;;
82711;SDS011;72433;41.992;21.438;2024-03-22T06:14:12;20.77;;;10.93;;
82711;SDS011;72433;41.992;21.438;2024-03-22T06:19:57;16.77;;;9.98;;
82711;SDS011;72433;41.992;21.438;2024-03-22T06:22:56;18.55;;;10.18;;
82711;SDS011;72433;41.992;21.438;2024-03-22T06:25:38;19.65;;;11.23;;
82711;SDS011;72433;41.992;21.438;2024-03-22T06:56:35;15.88;;;8.32;;
82711;SDS011;72433;41.992;21.438;2024-03-22T07:02:21;16.02;;;8.95;;
82711;SDS011;72433;41.992;21.438;2024-03-22T08:44:03;13.23;;;7.85;;
82711;SDS011;72433;41.992;21.438;2024-03-22T08:46:39;12.40;;;6.97;;
82711;SDS011;72433;41.992;21.438;2024-03-22T08:49:06;10.95;;;6.82;;
82711;SDS011;72433;41.992;21.438;2024-03-22T08:51:34;11.75;;;6.97;;
82711;SDS011;72433;41.992;21.438;2024-03-22T09:00:18;11.95;;;7.15;;
82711;SDS011;72433;41.992;21.438;2024-03-22T11:07:31;12.93;;;7.05;;
82711;SDS011;72433;41.992;21.438;2024-03-22T11:09:58;9.90;;;7.22;;
82711;SDS011;72433;41.992;21.438;2024-03-22T11:12:24;12.57;;;7.38;;
82711;SDS011;72433;41.992;21.438;2024-03-22T11:14:55;12.45;;;7.72;;
82711;SDS011;72433;41.992;21.438;2024-03-22T11:17:21;10.50;;;6.68;;
82711;SDS011;72433;41.992;21.438;2024-03-22T11:19:50;11.40;;;6.95;;
82711;SDS011;72433;41.992;21.438;2024-03-22T11:22:17;9.98;;;6.72;;
82711;SDS011;72433;41.992;21.438;2024-03-22T11:24:43;12.18;;;6.85;;
82711;SDS011;72433;41.992;21.438;2024-03-22T11:27:10;8.98;;;6.68;;
82711;SDS011;72433;41.992;21.438;2024-03-22T11:29:36;9.90;;;6.43;;
82711;SDS011;72433;41.992;21.438;2024-03-22T11:32:09;9.20;;;6.32;;
82711;SDS011;72433;41.992;21.438;2024-03-22T11:34:36;14.30;;;7.10;;
82711;SDS011;72433;41.992;21.438;2024-03-22T11:37:02;11.82;;;7.00;;
82711;SDS011;72433;41.992;21.438;2024-03-22T11:39:54;10.13;;;7.05;;
82711;SDS011;72433;41.992;21.438;2024-03-22T11:42:20;12.23;;;7.25;;
82711;SDS011;72433;41.992;21.438;2024-03-22T11:44:47;12.95;;;7.43;;
82711;SDS011;72433;41.992;21.438;2024-03-22T11:50:13;10.18;;;6.63;;
82711;SDS011;72433;41.992;21.438;2024-03-22T11:52:42;9.90;;;6.47;;
82711;SDS011;72433;41.992;21.438;2024-03-22T11:55:20;13.20;;;7.45;;
82711;SDS011;72433;41.992;21.438;2024-03-22T11:57:49;10.60;;;6.43;;
82711;SDS011;72433;41.992;21.438;2024-03-22T12:03:29;14.68;;;7.57;;
82711;SDS011;72433;41.992;21.438;2024-03-22T12:05:58;9.57;;;6.63;;
82711;SDS011;72433;41.992;21.438;2024-03-22T12:08:27;7.95;;;6.22;;
82711;SDS011;72433;41.992;21.438;2024-03-22T12:10:53;10.52;;;7.05;;
82711;SDS011;72433;41.992;21.438;2024-03-22T12:13:19;11.45;;;6.90;;
82711;SDS011;72433;41.992;21.438;2024-03-22T12:15:45;12.27;;;6.63;;
82711;SDS011;72433;41.992;21.438;2024-03-22T15:23:18;6.35;;;4.30;;
82711;SDS011;72433;41.992;21.438;2024-03-22T15:28:29;9.82;;;4.57;;
82711;SDS011;72433;41.992;21.438;2024-03-22T15:30:56;8.50;;;5.03;;
82711;SDS011;72433;41.992;21.438;2024-03-22T15:33:27;7.50;;;4.75;;
82711;SDS011;72433;41.992;21.438;2024-03-22T15:39:05;7.45;;;4.65;;
82711;SDS011;72433;41.992;21.438;2024-03-22T15:44:00;7.40;;;5.03;;
82711;SDS011;72433;41.992;21.438;2024-03-22T15:46:26;7.80;;;5.07;;
82711;SDS011;72433;41.992;21.438;2024-03-22T16:46:52;19.75;;;11.00;;
82711;SDS011;72433;41.992;21.438;2024-03-22T16:49:21;9.63;;;5.50;;
82711;SDS011;72433;41.992;21.438;2024-03-22T16:51:47;12.45;;;6.00;;
82711;SDS011;72433;41.992;21.438;2024-03-22T16:54:14;15.85;;;6.10;;
82711;SDS011;72433;41.992;21.438;2024-03-22T16:56:40;16.13;;;7.00;;
82711;SDS011;72433;41.992;21.438;2024-03-22T16:59:06;17.63;;;7.00;;
82711;SDS011;72433;41.992;21.438;2024-03-22T17:01:33;15.43;;;6.32;;
82711;SDS011;72433;41.992;21.438;2024-03-22T17:03:59;18.73;;;6.93;;
82711;SDS011;72433;41.992;21.438;2024-03-22T17:06:25;17.30;;;9.25;;
82711;SDS011;72433;41.992;21.438;2024-03-22T17:08:51;16.20;;;7.30;;
82711;SDS011;72433;41.992;21.438;2024-03-22T17:11:17;12.10;;;7.28;;
82711;SDS011;72433;41.992;21.438;2024-03-22T17:13:43;14.18;;;7.38;;
82711;SDS011;72433;41.992;21.438;2024-03-22T17:16:09;16.98;;;7.72;;
82711;SDS011;72433;41.992;21.438;2024-03-22T17:18:35;12.60;;;7.13;;
82711;SDS011;72433;41.992;21.438;2024-03-22T17:21:01;17.02;;;7.35;;
82711;SDS011;72433;41.992;21.438;2024-03-22T17:23:27;15.05;;;8.45;;
82711;SDS011;72433;41.992;21.438;2024-03-22T17:26:03;14.00;;;8.48;;
82711;SDS011;72433;41.992;21.438;2024-03-22T17:28:29;19.55;;;10.15;;
82711;SDS011;72433;41.992;21.438;2024-03-22T17:30:55;13.52;;;7.65;;
82711;SDS011;72433;41.992;21.438;2024-03-22T17:33:22;17.77;;;7.55;;
82711;SDS011;72433;41.992;21.438;2024-03-22T17:35:48;23.70;;;8.60;;
82711;SDS011;72433;41.992;21.438;2024-03-22T17:38:14;22.00;;;8.75;;
82711;SDS011;72433;41.992;21.438;2024-03-22T17:40:40;13.88;;;8.15;;
82711;SDS011;72433;41.992;21.438;2024-03-22T17:43:06;14.63;;;6.95;;
82711;SDS011;72433;41.992;21.438;2024-03-22T17:45:34;13.57;;;7.53;;
82711;SDS011;72433;41.992;21.438;2024-03-22T17:48:01;18.70;;;7.53;;
82711;SDS011;72433;41.992;21.438;2024-03-22T17:50:27;17.63;;;8.63;;
82711;SDS011;72433;41.992;21.438;2024-03-22T17:52:56;24.83;;;9.50;;
82711;SDS011;72433;41.992;21.438;2024-03-22T17:55:22;17.55;;;7.88;;
82711;SDS011;72433;41.992;21.438;2024-03-22T17:57:48;17.00;;;7.75;;
82711;SDS011;72433;41.992;21.438;2024-03-22T18:00:15;21.85;;;9.18;;
82711;SDS011;72433;41.992;21.438;2024-03-22T18:02:41;17.95;;;8.35;;
82711;SDS011;72433;41.992;21.438;2024-03-22T18:05:07;18.30;;;8.27;;
82711;SDS011;72433;41.992;21.438;2024-03-22T18:07:33;15.45;;;7.60;;
82711;SDS011;72433;41.992;21.438;2024-03-22T18:09:59;15.80;;;8.73;;
82711;SDS011;72433;41.992;21.438;2024-03-22T18:12:25;17.52;;;9.23;;
82711;SDS011;72433;41.992;21.438;2024-03-22T18:14:51;26.67;;;9.52;;
82711;SDS011;72433;41.992;21.438;2024-03-22T18:17:17;16.13;;;8.63;;
82711;SDS011;72433;41.992;21.438;2024-03-22T18:19:44;13.63;;;8.38;;
82711;SDS011;72433;41.992;21.438;2024-03-22T18:22:10;16.20;;;8.48;;
82711;SDS011;72433;41.992;21.438;2024-03-22T18:24:36;20.42;;;8.48;;
82711;SDS011;72433;41.992;21.438;2024-03-22T18:27:02;14.63;;;8.25;;
82711;SDS011;72433;41.992;21.438;2024-03-22T18:29:29;16.45;;;9.52;;
82711;SDS011;72433;41.992;21.438;2024-03-22T18:31:56;21.30;;;11.25;;
82711;SDS011;72433;41.992;21.438;2024-03-22T18:34:22;16.10;;;9.25;;
82711;SDS011;72433;41.992;21.438;2024-03-22T18:36:48;19.80;;;10.23;;
82711;SDS011;72433;41.992;21.438;2024-03-22T18:39:14;14.95;;;7.78;;
82711;SDS011;72433;41.992;21.438;2024-03-22T18:41:40;14.30;;;7.82;;
82711;SDS011;72433;41.992;21.438;2024-03-22T18:44:06;19.05;;;9.70;;
82711;SDS011;72433;41.992;21.438;2024-03-22T18:46:33;15.02;;;8.98;;
82711;SDS011;72433;41.992;21.438;2024-03-22T18:49:01;18.33;;;8.93;;
82711;SDS011;72433;41.992;21.438;2024-03-22T18:51:27;16.33;;;9.02;;
82711;SDS011;72433;41.992;21.438;2024-03-22T18:53:54;23.70;;;9.27;;
82711;SDS011;72433;41.992;21.438;2024-03-22T18:56:22;17.52;;;9.32;;
82711;SDS011;72433;41.992;21.438;2024-03-22T18:58:48;17.77;;;10.20;;
82711;SDS011;72433;41.992;21.438;2024-03-22T19:01:14;21.60;;;10.10;;
82711;SDS011;72433;41.992;21.438;2024-03-22T19:03:41;18.50;;;10.05;;
82711;SDS011;72433;41.992;21.438;2024-03-22T19:06:07;19.23;;;11.02;;
82711;SDS011;72433;41.992;21.438;2024-03-22T19:08:34;19.92;;;9.98;;
82711;SDS011;72433;41.992;21.438;2024-03-22T19:11:00;19.17;;;10.02;;
82711;SDS011;72433;41.992;21.438;2024-03-22T19:13:26;18.67;;;10.02;;
82711;SDS011;72433;41.992;21.438;2024-03-22T19:15:56;20.00;;;10.40;;
82711;SDS011;72433;41.992;21.438;2024-03-22T19:18:22;20.38;;;10.43;;
82711;SDS011;72433;41.992;21.438;2024-03-22T19:20:49;25.17;;;14.43;;
82711;SDS011;72433;41.992;21.438;2024-03-22T19:23:16;17.77;;;10.63;;
82711;SDS011;72433;41.992;21.438;2024-03-22T19:25:42;18.45;;;10.90;;
82711;SDS011;72433;41.992;21.438;2024-03-22T19:28:08;21.45;;;12.73;;
82711;SDS011;72433;41.992;21.438;2024-03-22T19:30:35;23.50;;;12.07;;
82711;SDS011;72433;41.992;21.438;2024-03-22T19:33:02;26.15;;;11.95;;
82711;SDS011;72433;41.992;21.438;2024-03-22T19:35:28;23.27;;;14.15;;
82711;SDS011;72433;41.992;21.438;2024-03-22T19:37:54;22.40;;;14.18;;
82711;SDS011;72433;41.992;21.438;2024-03-22T19:40:20;21.98;;;14.15;;
82711;SDS011;72433;41.992;21.438;2024-03-22T19:42:46;25.17;;;13.15;;
82711;SDS011;72433;41.992;21.438;2024-03-22T19:45:12;21.90;;;13.27;;
82711;SDS011;72433;41.992;21.438;2024-03-22T19:47:38;24.70;;;12.93;;
82711;SDS011;72433;41.992;21.438;2024-03-22T19:50:05;22.77;;;13.20;;
82711;SDS011;72433;41.992;21.438;2024-03-22T19:52:31;21.35;;;13.10;;
82711;SDS011;72433;41.992;21.438;2024-03-22T19:54:57;27.77;;;13.68;;
82711;SDS011;72433;41.992;21.438;2024-03-22T19:57:23;22.77;;;13.43;;
82711;SDS011;72433;41.992;21.438;2024-03-22T19:59:49;23.58;;;13.52;;
82711;SDS011;72433;41.992;21.438;2024-03-22T20:02:17;22.77;;;14.10;;
82711;SDS011;72433;41.992;21.438;2024-03-22T20:04:43;21.33;;;12.82;;
82711;SDS011;72433;41.992;21.438;2024-03-22T20:07:09;28.30;;;13.45;;
82711;SDS011;72433;41.992;21.438;2024-03-22T20:09:36;21.60;;;12.93;;
82711;SDS011;72433;41.992;21.438;2024-03-22T20:12:02;20.65;;;12.77;;
82711;SDS011;72433;41.992;21.438;2024-03-22T20:14:28;27.00;;;13.70;;
82711;SDS011;72433;41.992;21.438;2024-03-22T20:16:54;22.55;;;13.23;;
82711;SDS011;72433;41.992;21.438;2024-03-22T20:19:20;19.40;;;12.45;;
82711;SDS011;72433;41.992;21.438;2024-03-22T20:21:46;22.23;;;12.00;;
82711;SDS011;72433;41.992;21.438;2024-03-22T20:24:13;21.35;;;12.50;;
82711;SDS011;72433;41.992;21.438;2024-03-22T20:26:39;24.35;;;13.85;;
82711;SDS011;72433;41.992;21.438;2024-03-22T20:29:05;26.08;;;13.57;;
82711;SDS011;72433;41.992;21.438;2024-03-22T20:31:32;22.02;;;13.20;;
82711;SDS011;72433;41.992;21.438;2024-03-22T20:34:07;31.10;;;13.43;;
82711;SDS011;72433;41.992;21.438;2024-03-22T20:36:33;26.40;;;13.80;;
